createdAt,value
2022-10-31T00:01:20.605Z,99.85
2022-10-31T00:03:48.457Z,99.69
2022-10-31T00:06:18.979Z,99.60
2022-10-31T00:08:53.716Z,99.79
2022-10-31T00:11:20.179Z,99.87
2022-10-31T00:13:46.677Z,99.87
2022-10-31T00:16:17.730Z,99.77
2022-10-31T00:18:44.521Z,99.73
2022-10-31T00:21:11.183Z,99.72
2022-10-31T00:23:38.411Z,99.69
2022-10-31T00:26:05.910Z,99.84
2022-10-31T00:28:33.016Z,99.95
2022-10-31T00:31:04.732Z,99.84
2022-10-31T00:33:31.508Z,99.83
2022-10-31T00:35:58.060Z,99.83
2022-10-31T00:38:24.524Z,99.78
2022-10-31T00:40:50.988Z,99.71
2022-10-31T00:43:17.561Z,99.64
2022-10-31T00:45:44.775Z,99.67
2022-10-31T00:48:11.790Z,99.71
2022-10-31T00:50:38.634Z,99.79
2022-10-31T00:53:05.130Z,99.78
2022-10-31T00:55:31.647Z,99.76
2022-10-31T00:57:58.470Z,99.94
2022-10-31T01:00:25.385Z,99.86
2022-10-31T01:02:51.971Z,99.99
2022-10-31T01:05:18.710Z,99.99
2022-10-31T01:07:45.227Z,99.98
2022-10-31T01:10:12.455Z,99.98
2022-10-31T01:12:50.219Z,99.99
2022-10-31T01:15:19.935Z,99.99
2022-10-31T01:17:46.681Z,99.99
2022-10-31T01:20:14.799Z,99.99
2022-10-31T01:22:42.982Z,99.99
2022-10-31T01:25:13.414Z,99.99
2022-10-31T01:27:40.166Z,99.99
2022-10-31T01:30:07.154Z,99.99
2022-10-31T01:32:33.738Z,99.99
2022-10-31T01:35:00.274Z,99.99
2022-10-31T01:37:26.934Z,99.99
2022-10-31T01:39:53.527Z,99.99
2022-10-31T01:42:22.353Z,99.99
2022-10-31T01:44:56.971Z,99.99
2022-10-31T01:47:34.701Z,99.99
2022-10-31T01:50:05.586Z,99.99
2022-10-31T01:52:37.341Z,99.99
2022-10-31T01:55:06.065Z,99.99
2022-10-31T01:57:35.237Z,99.99
2022-10-31T02:00:08.039Z,99.99
2022-10-31T02:02:34.815Z,99.99
2022-10-31T02:05:05.539Z,99.99
2022-10-31T02:07:43.710Z,99.99
2022-10-31T02:10:10.854Z,99.99
2022-10-31T02:12:37.494Z,99.99
2022-10-31T02:15:04.852Z,99.99
2022-10-31T02:17:32.623Z,99.99
2022-10-31T02:20:18.822Z,99.99
2022-10-31T02:23:06.512Z,99.99
2022-10-31T02:25:51.749Z,99.99
2022-10-31T02:28:31.158Z,99.99
2022-10-31T02:31:18.951Z,99.99
2022-10-31T02:33:58.990Z,99.99
2022-10-31T02:36:33.831Z,99.99
2022-10-31T02:39:10.945Z,99.99
2022-10-31T02:42:05.297Z,99.99
2022-10-31T02:44:37.649Z,99.99
2022-10-31T02:47:13.414Z,99.99
2022-10-31T02:49:44.368Z,99.99
2022-10-31T02:52:24.843Z,99.99
2022-10-31T02:54:52.107Z,99.99
2022-10-31T02:57:24.630Z,99.99
2022-10-31T02:59:59.283Z,99.99
2022-10-31T03:02:44.599Z,99.99
2022-10-31T03:05:35.918Z,99.99
2022-10-31T03:08:24.192Z,99.99
2022-10-31T03:11:02.615Z,99.99
2022-10-31T03:13:35.186Z,99.99
2022-10-31T03:16:26.500Z,99.99
2022-10-31T03:19:13.549Z,99.99
2022-10-31T03:21:50.455Z,99.99
2022-10-31T03:24:17.748Z,99.99
2022-10-31T03:26:50.689Z,99.99
2022-10-31T03:29:22.265Z,99.99
2022-10-31T03:32:21.475Z,99.99
2022-10-31T03:34:49.290Z,99.99
2022-10-31T03:37:19.633Z,99.99
2022-10-31T03:39:49.275Z,99.99
2022-10-31T03:42:21.733Z,99.99
2022-10-31T03:44:56.062Z,99.99
2022-10-31T03:47:23.133Z,99.99
2022-10-31T03:49:50.046Z,99.99
2022-10-31T03:52:34.721Z,99.99
2022-10-31T03:55:10.889Z,99.99
2022-10-31T03:57:46.151Z,99.99
2022-10-31T04:00:15.548Z,99.99
2022-10-31T04:02:51.067Z,99.99
2022-10-31T04:05:18.953Z,99.99
2022-10-31T04:07:50.161Z,99.99
2022-10-31T04:10:17.668Z,99.99
2022-10-31T04:12:49.232Z,99.99
2022-10-31T04:15:16.037Z,99.99
2022-10-31T04:17:46.080Z,99.99
2022-10-31T04:20:17.226Z,99.99
2022-10-31T04:22:44.013Z,99.99
2022-10-31T04:25:10.550Z,99.99
2022-10-31T04:27:37.823Z,99.99
2022-10-31T04:30:04.708Z,99.99
2022-10-31T04:32:31.306Z,99.99
2022-10-31T04:34:57.776Z,99.99
2022-10-31T04:37:24.317Z,99.99
2022-10-31T04:39:51.122Z,99.99
2022-10-31T04:42:17.603Z,99.99
2022-10-31T04:44:44.226Z,99.99
2022-10-31T04:47:10.798Z,99.99
2022-10-31T04:49:37.327Z,99.99
2022-10-31T04:52:03.975Z,99.99
2022-10-31T04:54:30.501Z,99.99
2022-10-31T04:56:57.037Z,99.99
2022-10-31T04:59:23.635Z,99.99
2022-10-31T05:01:50.299Z,99.99
2022-10-31T05:04:16.783Z,99.99
2022-10-31T05:06:43.367Z,99.99
2022-10-31T05:09:15.149Z,99.99
2022-10-31T05:11:41.723Z,99.99
2022-10-31T05:14:08.333Z,99.99
2022-10-31T05:16:34.867Z,99.99
2022-10-31T05:19:01.408Z,99.99
2022-10-31T05:21:27.999Z,99.99
2022-10-31T05:23:54.575Z,99.99
2022-10-31T05:26:21.097Z,99.99
2022-10-31T05:28:47.604Z,99.99
2022-10-31T05:31:14.858Z,99.99
2022-10-31T05:33:41.424Z,99.99
2022-10-31T05:36:08.219Z,99.99
2022-10-31T05:38:34.675Z,99.99
2022-10-31T05:41:02.079Z,99.99
2022-10-31T05:43:29.729Z,99.99
2022-10-31T05:45:57.426Z,99.99
2022-10-31T05:48:24.080Z,99.99
2022-10-31T05:50:50.811Z,99.99
2022-10-31T05:53:17.681Z,99.99
2022-10-31T05:55:44.479Z,99.99
2022-10-31T05:58:11.919Z,99.99
2022-10-31T06:00:38.922Z,99.99
2022-10-31T06:05:39.575Z,99.99
2022-10-31T06:08:06.273Z,99.99
2022-10-31T06:10:32.786Z,99.99
2022-10-31T06:12:59.273Z,99.99
2022-10-31T06:15:25.914Z,99.99
2022-10-31T06:18:04.739Z,99.99
2022-10-31T06:20:34.779Z,99.99
2022-10-31T06:23:02.161Z,99.99
2022-10-31T06:25:29.485Z,99.99
2022-10-31T06:27:56.899Z,99.99
2022-10-31T06:30:23.432Z,99.99
2022-10-31T06:32:50.721Z,99.99
2022-10-31T06:35:17.947Z,99.99
2022-10-31T06:37:52.072Z,99.99
2022-10-31T06:40:18.611Z,99.99
2022-10-31T06:42:45.200Z,99.99
2022-10-31T06:45:11.721Z,99.99
2022-10-31T06:47:56.759Z,99.99
2022-10-31T06:50:24.832Z,99.99
2022-10-31T06:52:59.042Z,99.99
2022-10-31T06:55:26.896Z,99.99
2022-10-31T06:58:02.021Z,99.99
2022-10-31T07:00:31.329Z,99.99
2022-10-31T07:03:11.254Z,99.99
2022-10-31T07:05:38.057Z,99.99
2022-10-31T07:08:10.948Z,99.99
2022-10-31T07:10:40.503Z,99.99
2022-10-31T07:13:12.323Z,99.99
2022-10-31T07:15:40.822Z,99.99
2022-10-31T07:18:09.573Z,99.99
2022-10-31T07:20:36.487Z,99.99
2022-10-31T07:23:05.091Z,99.99
2022-10-31T07:25:31.904Z,99.99
2022-10-31T07:27:58.805Z,99.99
2022-10-31T07:30:25.609Z,99.99
2022-10-31T07:32:52.191Z,99.99
2022-10-31T07:35:24.987Z,99.99
2022-10-31T07:37:55.747Z,99.99
2022-10-31T07:40:23.961Z,99.99
2022-10-31T07:42:53.023Z,99.99
2022-10-31T07:45:24.103Z,99.99
2022-10-31T07:47:52.328Z,99.99
2022-10-31T07:50:24.680Z,99.99
2022-10-31T07:53:07.626Z,99.99
2022-10-31T07:55:34.778Z,99.99
2022-10-31T07:58:04.481Z,99.99
2022-10-31T08:00:35.562Z,99.84
2022-10-31T08:03:07.337Z,99.99
2022-10-31T08:05:34.805Z,99.93
2022-10-31T08:08:01.929Z,99.89
2022-10-31T08:10:29.849Z,99.61
2022-10-31T08:13:01.334Z,99.36
2022-10-31T08:15:28.343Z,99.65
2022-10-31T08:17:55.160Z,99.29
2022-10-31T08:20:22.987Z,99.19
2022-10-31T08:22:56.544Z,98.77
2022-10-31T08:25:23.781Z,98.57
2022-10-31T08:27:54.994Z,98.55
2022-10-31T08:30:24.484Z,98.64
2022-10-31T08:33:03.181Z,98.22
2022-10-31T08:35:29.685Z,98.37
2022-10-31T08:37:57.843Z,98.38
2022-10-31T08:40:26.035Z,98.15
2022-10-31T08:43:06.356Z,97.59
2022-10-31T08:45:34.592Z,97.59
2022-10-31T08:48:03.581Z,96.70
2022-10-31T08:50:32.500Z,96.09
2022-10-31T08:53:05.940Z,95.74
2022-10-31T08:55:35.355Z,94.81
2022-10-31T08:58:02.959Z,95.52
2022-10-31T09:00:29.967Z,94.63
2022-10-31T09:03:04.837Z,92.65
2022-10-31T09:05:32.153Z,90.40
2022-10-31T09:08:00.490Z,88.15
2022-10-31T09:10:28.993Z,83.32
2022-10-31T09:12:58.994Z,80.25
2022-10-31T09:15:26.957Z,78.55
2022-10-31T09:17:54.069Z,75.38
2022-10-31T09:20:21.222Z,73.88
2022-10-31T09:22:47.811Z,72.20
2022-10-31T09:25:14.903Z,71.38
2022-10-31T09:27:41.417Z,72.06
2022-10-31T09:30:09.246Z,71.10
2022-10-31T09:32:35.701Z,71.62
2022-10-31T09:35:02.359Z,68.76
2022-10-31T09:37:28.990Z,68.28
2022-10-31T09:39:55.523Z,69.50
2022-10-31T09:42:40.769Z,68.66
2022-10-31T09:45:16.076Z,66.45
2022-10-31T09:48:20.932Z,65.46
2022-10-31T09:50:56.937Z,64.10
2022-10-31T09:53:42.107Z,64.54
2022-10-31T09:56:13.933Z,65.63
2022-10-31T09:58:43.938Z,67.89
2022-10-31T10:01:27.113Z,70.94
2022-10-31T10:03:58.803Z,71.50
2022-10-31T10:06:29.478Z,72.67
2022-10-31T10:08:56.989Z,75.41
2022-10-31T10:11:35.442Z,75.52
2022-10-31T10:14:14.072Z,74.42
2022-10-31T10:16:52.652Z,75.61
2022-10-31T10:19:40.293Z,76.22
2022-10-31T10:22:38.205Z,75.84
2022-10-31T10:25:10.556Z,77.37
2022-10-31T10:27:48.819Z,78.06
2022-10-31T10:30:23.886Z,78.88
2022-10-31T10:33:01.556Z,79.07
2022-10-31T10:35:39.079Z,78.71
2022-10-31T10:38:23.045Z,79.59
2022-10-31T10:40:50.090Z,80.31
2022-10-31T10:43:38.694Z,79.42
2022-10-31T10:46:23.697Z,79.20
2022-10-31T10:49:21.097Z,79.06
2022-10-31T10:52:02.660Z,79.02
2022-10-31T10:54:42.073Z,80.18
2022-10-31T10:57:29.843Z,79.63
2022-10-31T10:59:56.635Z,79.42
2022-10-31T11:02:26.025Z,79.72
2022-10-31T11:04:58.282Z,80.50
2022-10-31T11:07:24.797Z,80.36
2022-10-31T11:09:51.446Z,79.75
2022-10-31T11:12:32.917Z,79.65
2022-10-31T11:15:04.931Z,80.42
2022-10-31T11:17:34.828Z,79.18
2022-10-31T11:20:07.385Z,80.14
2022-10-31T11:22:34.049Z,79.81
2022-10-31T11:25:01.334Z,78.25
2022-10-31T11:27:28.084Z,78.48
2022-10-31T11:30:05.772Z,78.87
2022-10-31T11:32:32.647Z,78.48
2022-10-31T11:35:02.598Z,79.39
2022-10-31T11:37:36.124Z,80.18
2022-10-31T11:40:07.782Z,79.36
2022-10-31T11:42:40.842Z,78.20
2022-10-31T11:45:17.620Z,79.43
2022-10-31T11:47:59.652Z,79.82
2022-10-31T11:50:38.262Z,79.69
2022-10-31T11:53:12.837Z,78.54
2022-10-31T11:55:41.220Z,78.79
2022-10-31T11:58:25.939Z,78.50
2022-10-31T12:00:55.378Z,78.96
2022-10-31T12:03:25.196Z,78.78
2022-10-31T12:06:09.151Z,78.44
2022-10-31T12:08:37.553Z,78.11
2022-10-31T12:11:32.058Z,78.70
2022-10-31T12:14:31.147Z,78.64
2022-10-31T12:16:57.580Z,79.03
2022-10-31T12:19:35.995Z,77.45
2022-10-31T12:22:10.227Z,78.31
2022-10-31T12:25:01.262Z,77.32
2022-10-31T12:28:00.319Z,76.99
2022-10-31T12:30:50.273Z,77.00
2022-10-31T12:33:38.997Z,76.84
2022-10-31T12:36:15.422Z,76.71
2022-10-31T12:39:07.322Z,76.58
2022-10-31T12:41:47.266Z,76.62
2022-10-31T12:44:30.815Z,76.66
2022-10-31T12:46:57.481Z,76.39
2022-10-31T12:49:42.440Z,77.29
2022-10-31T12:52:34.889Z,78.50
2022-10-31T12:55:27.316Z,78.96
2022-10-31T12:57:59.509Z,79.06
2022-10-31T13:00:30.400Z,79.26
2022-10-31T13:03:10.476Z,79.81
2022-10-31T13:05:47.312Z,80.09
2022-10-31T13:08:18.125Z,80.63
2022-10-31T13:10:48.949Z,80.77
2022-10-31T13:13:27.688Z,81.52
2022-10-31T13:15:58.563Z,82.12
2022-10-31T13:19:03.598Z,81.93
2022-10-31T13:21:42.496Z,82.19
2022-10-31T13:24:17.415Z,82.35
2022-10-31T13:27:00.232Z,82.63
2022-10-31T13:30:01.650Z,83.16
2022-10-31T13:32:38.195Z,83.20
2022-10-31T13:35:08.628Z,83.50
2022-10-31T13:37:42.745Z,83.45
2022-10-31T13:40:39.048Z,83.58
2022-10-31T13:43:18.009Z,83.23
2022-10-31T13:45:53.021Z,83.73
2022-10-31T13:48:35.590Z,84.47
2022-10-31T13:51:07.203Z,84.45
2022-10-31T13:54:01.011Z,85.05
2022-10-31T13:56:33.888Z,85.49
2022-10-31T13:59:07.917Z,85.67
2022-10-31T14:01:34.963Z,85.89
2022-10-31T14:04:14.748Z,86.44
2022-10-31T14:07:26.169Z,86.66
2022-10-31T14:10:29.653Z,87.22
2022-10-31T14:13:25.665Z,87.06
2022-10-31T14:16:02.885Z,87.61
2022-10-31T14:18:36.185Z,88.10
2022-10-31T14:21:14.425Z,88.51
2022-10-31T14:23:41.640Z,88.69
2022-10-31T14:26:21.900Z,88.99
2022-10-31T14:28:50.874Z,89.25
2022-10-31T14:31:38.856Z,89.74
2022-10-31T14:34:23.810Z,89.51
2022-10-31T14:37:05.832Z,90.07
2022-10-31T14:40:17.861Z,90.44
2022-10-31T14:42:59.030Z,90.43
2022-10-31T14:45:31.670Z,90.67
2022-10-31T14:48:34.143Z,91.05
2022-10-31T14:51:20.399Z,91.53
2022-10-31T14:53:50.246Z,92.01
2022-10-31T14:56:31.385Z,92.08
2022-10-31T14:59:02.185Z,92.17
2022-10-31T15:01:32.295Z,92.38
2022-10-31T15:04:22.228Z,92.59
2022-10-31T15:06:55.049Z,92.41
2022-10-31T15:09:22.690Z,92.27
2022-10-31T15:11:49.273Z,92.45
2022-10-31T15:14:26.448Z,92.87
2022-10-31T15:16:53.215Z,92.90
2022-10-31T15:19:33.215Z,93.51
2022-10-31T15:22:00.222Z,93.73
2022-10-31T15:24:35.519Z,93.75
2022-10-31T15:27:05.200Z,93.69
2022-10-31T15:29:32.431Z,93.80
2022-10-31T15:32:13.919Z,94.13
2022-10-31T15:34:45.164Z,94.42
2022-10-31T15:37:14.654Z,94.36
2022-10-31T15:39:41.749Z,94.25
2022-10-31T15:42:36.419Z,94.27
2022-10-31T15:45:17.005Z,94.38
2022-10-31T15:48:00.103Z,94.38
2022-10-31T15:50:33.415Z,94.57
2022-10-31T15:53:01.556Z,94.86
2022-10-31T15:55:33.190Z,95.54
2022-10-31T15:58:05.593Z,95.38
2022-10-31T16:00:35.177Z,95.49
2022-10-31T16:03:16.605Z,95.74
2022-10-31T16:05:54.936Z,95.84
2022-10-31T16:08:30.689Z,96.08
2022-10-31T16:10:59.102Z,95.93
2022-10-31T16:13:32.114Z,95.82
2022-10-31T16:16:33.452Z,95.97
2022-10-31T16:18:51.016Z,96.13
2022-10-31T16:21:25.055Z,96.20
2022-10-31T16:23:58.169Z,96.37
2022-10-31T16:26:25.895Z,96.52
2022-10-31T16:29:03.239Z,96.71
2022-10-31T16:31:38.347Z,96.50
2022-10-31T16:34:26.382Z,96.61
2022-10-31T16:36:54.224Z,96.54
2022-10-31T16:39:21.078Z,96.54
2022-10-31T16:41:51.519Z,96.59
2022-10-31T16:44:26.832Z,96.75
2022-10-31T16:47:14.783Z,96.66
2022-10-31T16:49:43.205Z,96.78
2022-10-31T16:52:09.748Z,96.64
2022-10-31T16:54:36.324Z,96.68
2022-10-31T16:57:04.876Z,96.64
2022-10-31T16:59:34.198Z,96.69
2022-10-31T17:02:01.983Z,96.62
2022-10-31T17:04:29.448Z,96.56
2022-10-31T17:06:56.014Z,96.71
2022-10-31T17:09:22.756Z,96.62
2022-10-31T17:11:52.183Z,96.65
2022-10-31T17:14:19.524Z,96.76
2022-10-31T17:16:46.014Z,96.89
2022-10-31T17:19:13.081Z,96.89
2022-10-31T17:21:40.595Z,96.95
2022-10-31T17:24:08.990Z,97.29
2022-10-31T17:26:35.552Z,97.43
2022-10-31T17:29:03.483Z,97.30
2022-10-31T17:31:32.895Z,97.41
2022-10-31T17:34:02.592Z,97.36
2022-10-31T17:36:30.767Z,97.37
2022-10-31T17:38:57.424Z,97.32
2022-10-31T17:41:23.958Z,97.41
2022-10-31T17:43:55.679Z,97.65
2022-10-31T17:46:22.428Z,97.75
2022-10-31T17:48:48.941Z,97.78
2022-10-31T17:51:15.487Z,97.83
2022-10-31T17:53:42.026Z,97.95
2022-10-31T17:56:09.712Z,98.02
2022-10-31T17:58:37.873Z,98.17
2022-10-31T18:01:10.515Z,97.98
2022-10-31T18:03:38.224Z,98.32
2022-10-31T18:06:05.393Z,98.38
2022-10-31T18:08:35.735Z,98.31
2022-10-31T18:11:11.013Z,98.29
2022-10-31T18:13:38.851Z,98.40
2022-10-31T18:16:23.728Z,98.47
2022-10-31T18:18:52.683Z,98.52
2022-10-31T18:21:20.205Z,98.60
2022-10-31T18:23:47.736Z,98.70
2022-10-31T18:26:14.325Z,98.66
2022-10-31T18:28:40.801Z,98.68
2022-10-31T18:31:07.353Z,98.66
2022-10-31T18:33:33.866Z,98.73
2022-10-31T18:36:05.907Z,98.73
2022-10-31T18:38:33.477Z,98.73
2022-10-31T18:41:00.003Z,98.79
2022-10-31T18:43:26.640Z,98.84
2022-10-31T18:45:57.799Z,98.91
2022-10-31T18:48:24.956Z,98.87
2022-10-31T18:50:51.645Z,98.88
2022-10-31T18:53:18.199Z,98.91
2022-10-31T18:55:49.088Z,98.79
2022-10-31T18:58:16.981Z,98.67
2022-10-31T19:00:43.707Z,98.68
2022-10-31T19:03:10.267Z,98.92
2022-10-31T19:05:36.778Z,99.01
2022-10-31T19:08:03.659Z,99.09
2022-10-31T19:10:30.225Z,99.26
2022-10-31T19:12:56.712Z,99.32
2022-10-31T19:15:23.184Z,99.21
2022-10-31T19:17:49.852Z,99.03
2022-10-31T19:20:16.491Z,99.09
2022-10-31T19:22:43.328Z,99.17
2022-10-31T19:25:10.965Z,99.25
2022-10-31T19:27:38.535Z,99.27
2022-10-31T19:30:06.726Z,99.30
2022-10-31T19:32:33.640Z,99.40
2022-10-31T19:35:00.391Z,99.38
2022-10-31T19:37:27.029Z,99.28
2022-10-31T19:39:54.132Z,99.38
2022-10-31T19:42:20.687Z,99.34
2022-10-31T19:44:47.211Z,99.29
2022-10-31T19:47:13.814Z,99.42
2022-10-31T19:49:40.361Z,99.51
2022-10-31T19:52:07.204Z,99.51
2022-10-31T19:54:33.722Z,99.52
2022-10-31T19:57:00.211Z,99.53
2022-10-31T19:59:26.710Z,99.57
2022-10-31T20:01:53.233Z,99.63
2022-10-31T20:04:19.928Z,99.71
2022-10-31T20:06:46.509Z,99.64
2022-10-31T20:09:14.666Z,99.60
2022-10-31T20:11:43.166Z,99.63
2022-10-31T20:14:15.849Z,99.62
2022-10-31T20:16:42.945Z,99.63
2022-10-31T20:19:12.263Z,99.55
2022-10-31T20:21:42.632Z,99.56
2022-10-31T20:24:10.729Z,99.57
2022-10-31T20:26:40.580Z,99.57
2022-10-31T20:29:07.621Z,99.55
2022-10-31T20:31:36.465Z,99.36
2022-10-31T20:34:03.561Z,99.37
2022-10-31T20:36:30.888Z,99.41
2022-10-31T20:38:58.473Z,99.54
2022-10-31T20:41:25.452Z,99.28
2022-10-31T20:43:52.539Z,99.37
2022-10-31T20:46:24.836Z,99.47
2022-10-31T20:48:52.068Z,99.47
2022-10-31T20:51:28.236Z,99.50
2022-10-31T20:53:56.821Z,99.53
2022-10-31T20:56:25.808Z,99.65
2022-10-31T20:58:54.264Z,99.62
2022-10-31T21:01:27.037Z,99.67
2022-10-31T21:03:54.639Z,99.67
2022-10-31T21:06:25.447Z,99.84
2022-10-31T21:08:56.174Z,99.68
2022-10-31T21:11:25.310Z,99.65
2022-10-31T21:13:54.478Z,99.64
2022-10-31T21:16:24.319Z,99.36
2022-10-31T21:18:51.922Z,99.26
2022-10-31T21:21:23.373Z,99.16
2022-10-31T21:23:57.690Z,99.21
2022-10-31T21:26:27.241Z,99.44
2022-10-31T21:28:56.392Z,99.66
2022-10-31T21:31:23.559Z,99.69
2022-10-31T21:33:50.220Z,99.69
2022-10-31T21:36:16.798Z,99.64
2022-10-31T21:38:44.091Z,99.42
2022-10-31T21:41:15.656Z,99.13
2022-10-31T21:43:44.250Z,98.98
2022-10-31T21:46:17.754Z,99.03
2022-10-31T21:48:45.025Z,99.14
2022-10-31T21:51:15.586Z,99.24
2022-10-31T21:54:01.392Z,99.13
2022-10-31T21:56:28.310Z,99.19
2022-10-31T21:58:55.690Z,99.25
2022-10-31T22:01:23.775Z,99.37
2022-10-31T22:03:50.465Z,99.53
2022-10-31T22:06:17.232Z,99.60
2022-10-31T22:08:43.915Z,99.56
2022-10-31T22:11:13.626Z,99.45
2022-10-31T22:13:41.363Z,99.16
2022-10-31T22:16:09.891Z,99.07
2022-10-31T22:18:36.795Z,99.20
2022-10-31T22:21:05.792Z,99.15
2022-10-31T22:23:33.103Z,99.18
2022-10-31T22:26:07.324Z,99.22
2022-10-31T22:28:34.946Z,99.17
2022-10-31T22:31:05.963Z,99.28
2022-10-31T22:33:32.698Z,99.10
2022-10-31T22:36:03.667Z,98.96
2022-10-31T22:38:34.394Z,98.88
2022-10-31T22:41:01.939Z,98.81
2022-10-31T22:43:28.409Z,98.67
2022-10-31T22:45:55.949Z,98.89
2022-10-31T22:48:22.510Z,98.78
2022-10-31T22:50:48.987Z,98.87
2022-10-31T22:53:15.822Z,99.13
2022-10-31T22:55:42.462Z,99.09
2022-10-31T22:58:08.933Z,98.99
2022-10-31T23:00:35.665Z,99.02
2022-10-31T23:03:02.205Z,99.10
2022-10-31T23:05:28.695Z,99.14
2022-10-31T23:07:55.177Z,99.33
2022-10-31T23:10:21.703Z,99.32
2022-10-31T23:13:06.996Z,99.30
2022-10-31T23:15:37.666Z,98.75
2022-10-31T23:18:05.168Z,98.73
2022-10-31T23:20:37.583Z,98.74
2022-10-31T23:23:04.602Z,98.86
2022-10-31T23:25:49.884Z,98.89
2022-10-31T23:28:16.426Z,99.05
2022-10-31T23:30:45.488Z,98.79
2022-10-31T23:33:12.070Z,98.99
2022-10-31T23:35:38.607Z,98.87
2022-10-31T23:38:05.258Z,98.69
2022-10-31T23:40:32.153Z,98.67
2022-10-31T23:42:58.819Z,98.80
2022-10-31T23:45:25.602Z,98.72
2022-10-31T23:47:52.084Z,98.71
2022-10-31T23:50:18.832Z,98.90
2022-10-31T23:52:45.305Z,98.76
2022-10-31T23:55:11.774Z,98.97
2022-10-31T23:57:38.239Z,98.94
